This is the latest recevied weather packets stored in our database for station/object HS1AXC-1. If no packets are shown the sender has not sent any weather packets the latest 1 day(s).
| Time | Temp. | Humidity | Pressure | Rain* | Wind** | Luminosity | Snow |
|---|---|---|---|---|---|---|---|
| 1778105660 | 32.22° C | 92% | 1008 hPa | - | - | 0 W/m² | - |
| 1778095954 | 33.33° C | 83% | 1007 hPa | - | - | 0 W/m² | - |
| 1778095332 | 33.33° C | 81% | 1007 hPa | - | - | 0 W/m² | - |
| 1778094710 | 33.33° C | 79% | 1007 hPa | - | - | 0 W/m² | - |
| 1778094088 | 33.89° C | 77% | 1007 hPa | - | - | 0 W/m² | - |
| 1778092428 | 33.89° C | 76% | 1007 hPa | - | - | 0 W/m² | - |
| 1778091806 | 33.89° C | 75% | 1008 hPa | - | - | 0 W/m² | - |
| 1778086697 | 34.44° C | 72% | 1008 hPa | - | - | 0 W/m² | - |
| 1778084209 | 33.89° C | 71% | 1008 hPa | - | - | 0 W/m² | - |
| 1778082965 | 33.89° C | 72% | 1009 hPa | - | - | 0 W/m² | - |
| 1778082343 | 33.89° C | 73% | 1009 hPa | - | - | 0 W/m² | - |
| 1778081721 | 34.44° C | 71% | 1009 hPa | - | - | 0 W/m² | - |
| 1778079132 | 33.89° C | 70% | 1008 hPa | - | - | 0 W/m² | - |
| 1778077888 | 34.44° C | 67% | 1008 hPa | - | - | 0 W/m² | - |
| 1778077266 | 33.33° C | 71% | 1008 hPa | - | - | 0 W/m² | - |
| 1778076644 | 33.89° C | 70% | 1008 hPa | - | - | 0 W/m² | - |
| 1778076022 | 34.44° C | 69% | 1008 hPa | - | - | 0 W/m² | - |
| 1778075400 | 34.44° C | 69% | 1008 hPa | - | - | 0 W/m² | - |
| 1778074778 | 34.44° C | 69% | 1008 hPa | - | - | 0 W/m² | - |
| 1778072912 | 33.33° C | 76% | 1007 hPa | - | - | 0 W/m² | - |
| 1778067657 | 35.56° C | 70% | 1007 hPa | - | - | 0 W/m² | - |
| 1778064618 | 36.67° C | 62% | 1006 hPa | - | - | 0 W/m² | - |
| 1778063996 | 36.11° C | 63% | 1005 hPa | - | - | 0 W/m² | - |
| 1778063374 | 36.11° C | 61% | 1005 hPa | - | - | 0 W/m² | - |
| 1778059019 | 35.56° C | 60% | 1006 hPa | - | - | 0 W/m² | - |
* Rain since midnight (hover to see other rain measurements)
** Current wind speed in m/s (hover to see current wind gust speed)